Time;durP1;ratioP1;P1;durP2;ratioP2;P2;SDS_P1;SDS_P2;PMS_P1;PMS_P2;Temp;Humidity;BMP_temperature;BMP_pressure;BME280_temperature;BME280_humidity;BME280_pressure;Samples;Min_cycle;Max_cycle;Signal;HPM_P1;HPM_P2
2023/05/10 00:02:24;;;;;;;1999.90;999.90;;;27.10;80.00;;;;;;5101180;28;20055;-69
2023/05/10 00:04:52;;;;;;;1999.90;999.90;;;27.40;80.60;;;;;;5097228;28;20383;-68
2023/05/10 00:07:20;;;;;;;1999.90;999.90;;;27.70;80.80;;;;;;5097841;28;20016;-68
2023/05/10 00:09:47;;;;;;;1999.90;999.90;;;27.90;80.60;;;;;;5097954;28;20036;-68
2023/05/10 00:12:14;;;;;;;1999.90;999.90;;;28.30;79.00;;;;;;5092432;28;20058;-68
2023/05/10 00:14:42;;;;;;;1999.90;999.90;;;28.60;78.00;;;;;;5085853;28;20039;-68
2023/05/10 00:17:09;;;;;;;1999.90;999.90;;;28.50;77.90;;;;;;5097628;28;20384;-68
2023/05/10 00:19:36;;;;;;;1999.90;999.90;;;28.80;76.40;;;;;;5085005;28;20043;-68
2023/05/10 00:22:04;;;;;;;1999.90;999.90;;;28.70;76.70;;;;;;5089778;28;20034;-69
2023/05/10 00:24:31;;;;;;;1999.90;999.90;;;28.80;76.00;;;;;;5067424;28;20032;-69
2023/05/10 00:26:58;;;;;;;1999.90;999.90;;;29.00;75.70;;;;;;5083289;28;20082;-70
2023/05/10 00:29:27;;;;;;;1999.90;999.90;;;29.10;75.10;;;;;;5084286;28;20351;-70
2023/05/10 00:31:55;;;;;;;1999.90;999.90;;;29.00;75.10;;;;;;5095439;28;20382;-68
2023/05/10 00:34:22;;;;;;;1999.90;999.90;;;29.30;74.80;;;;;;5091736;28;20052;-69
2023/05/10 00:36:56;;;;;;;1999.90;999.90;;;29.50;73.00;;;;;;5102463;28;20031;-68
2023/05/10 00:39:23;;;;;;;1999.90;999.90;;;29.60;74.70;;;;;;5081052;28;20118;-69
2023/05/10 00:41:51;;;;;;;1999.90;999.90;;;29.70;73.70;;;;;;5086531;28;20017;-70
2023/05/10 00:44:18;;;;;;;1999.90;999.90;;;29.70;73.80;;;;;;5094682;28;20036;-69
2023/05/10 00:46:46;;;;;;;1999.90;999.90;;;29.80;73.40;;;;;;5085096;28;20016;-69
2023/05/10 00:49:13;;;;;;;1999.90;999.90;;;29.90;73.40;;;;;;5083331;28;20040;-68
2023/05/10 00:51:42;;;;;;;1999.90;999.90;;;30.10;73.10;;;;;;5094235;28;20474;-68
2023/05/10 00:54:13;;;;;;;1999.90;999.90;;;30.40;72.70;;;;;;5089403;28;20421;-68
2023/05/10 00:56:41;;;;;;;1999.90;999.90;;;30.50;72.00;;;;;;5089821;28;20023;-67
2023/05/10 00:59:11;;;;;;;1999.90;999.90;;;30.50;71.70;;;;;;5087933;28;20533;-68
2023/05/10 01:01:39;;;;;;;1999.90;999.90;;;30.60;72.60;;;;;;5090498;28;20554;-67
2023/05/10 01:04:07;;;;;;;1999.90;999.90;;;30.70;70.90;;;;;;5089128;28;20042;-68
2023/05/10 01:06:34;;;;;;;1999.90;999.90;;;30.60;71.20;;;;;;5090891;28;20024;-68
2023/05/10 01:09:01;;;;;;;1999.90;999.90;;;30.60;71.00;;;;;;5091209;28;20071;-68
2023/05/10 01:11:29;;;;;;;1999.90;999.90;;;30.70;71.10;;;;;;5096506;28;20028;-68
2023/05/10 01:13:58;;;;;;;1999.90;999.90;;;30.90;70.50;;;;;;5093351;28;20039;-67
2023/05/10 01:16:26;;;;;;;1999.90;999.90;;;30.90;70.30;;;;;;5094049;28;20500;-67
2023/05/10 01:18:54;;;;;;;1999.90;999.90;;;30.90;70.40;;;;;;5088284;28;20046;-69
2023/05/10 01:22:04;;;;;;;1999.90;999.90;;;31.00;69.70;;;;;;5095088;28;20034;-68
2023/05/10 01:25:13;;;;;;;1999.90;999.90;;;30.90;69.60;;;;;;5087458;28;20050;-68
2023/05/10 01:28:22;;;;;;;1999.90;999.90;;;31.00;69.30;;;;;;5097143;28;20482;-68
2023/05/10 01:30:59;;;;;;;1999.90;999.90;;;31.10;69.60;;;;;;5089575;28;20069;-68
2023/05/10 01:33:44;;;;;;;1999.90;999.90;;;31.20;68.80;;;;;;5088543;28;20036;-68
2023/05/10 01:36:32;;;;;;;1999.90;999.90;;;30.90;69.00;;;;;;5092450;28;20444;-67
2023/05/10 01:39:23;;;;;;;1999.90;999.90;;;30.70;69.40;;;;;;5094124;28;20052;-68
2023/05/10 01:42:14;;;;;;;1999.90;999.90;;;30.80;69.50;;;;;;5091361;28;20116;-68
2023/05/10 01:45:05;;;;;;;1999.90;999.90;;;30.80;68.50;;;;;;5088748;28;20020;-68
2023/05/10 01:47:43;;;;;;;1999.90;999.90;;;30.90;68.20;;;;;;5096210;28;20500;-68
2023/05/10 01:50:18;;;;;;;1999.90;999.90;;;30.80;68.10;;;;;;5099371;28;20024;-67
2023/05/10 01:52:54;;;;;;;1999.90;999.90;;;31.00;68.50;;;;;;5090062;28;20067;-68
2023/05/10 01:55:24;;;;;;;1999.90;999.90;;;30.90;68.20;;;;;;5088068;28;20040;-68
2023/05/10 01:57:59;;;;;;;1999.90;999.90;;;30.70;68.20;;;;;;5090366;28;20036;-69
2023/05/10 02:00:28;;;;;;;1999.90;999.90;;;30.40;68.00;;;;;;5088966;28;20036;-66
2023/05/10 02:02:56;;;;;;;1999.90;999.90;;;30.20;69.10;;;;;;5096789;28;20480;-68
2023/05/10 02:05:24;;;;;;;1999.90;999.90;;;30.10;70.40;;;;;;5091766;28;20050;-68
2023/05/10 02:07:53;;;;;;;1999.90;999.90;;;30.10;69.60;;;;;;5085292;28;20398;-67
2023/05/10 02:10:21;;;;;;;1999.90;999.90;;;30.10;69.30;;;;;;5092625;28;20030;-69
2023/05/10 02:12:50;;;;;;;1999.90;999.90;;;30.30;69.10;;;;;;5080088;28;20606;-69
2023/05/10 02:15:25;;;;;;;1999.90;999.90;;;30.30;68.60;;;;;;5089318;28;20465;-69
2023/05/10 02:17:55;;;;;;;1999.90;999.90;;;29.80;68.20;;;;;;5100211;28;20470;-67
2023/05/10 02:20:24;;;;;;;1999.90;999.90;;;29.30;69.10;;;;;;5091395;28;20035;-69
2023/05/10 02:22:54;;;;;;;1999.90;999.90;;;28.80;69.40;;;;;;5097723;28;20393;-69
2023/05/10 02:25:23;;;;;;;1999.90;999.90;;;28.60;70.60;;;;;;5083569;28;20386;-69
2023/05/10 02:27:52;;;;;;;1999.90;999.90;;;28.40;70.80;;;;;;5093114;28;20024;-68
2023/05/10 02:30:20;;;;;;;1999.90;999.90;;;28.50;71.40;;;;;;5089462;28;20162;-68
2023/05/10 02:32:50;;;;;;;1999.90;999.90;;;28.70;70.90;;;;;;5094131;28;20042;-68
2023/05/10 02:35:17;;;;;;;1999.90;999.90;;;28.70;71.00;;;;;;5093134;28;20036;-67
2023/05/10 02:37:47;;;;;;;1999.90;999.90;;;28.60;70.60;;;;;;5104615;28;20024;-67
2023/05/10 02:40:16;;;;;;;1999.90;999.90;;;28.50;70.70;;;;;;5099109;28;20115;-66
2023/05/10 02:42:45;;;;;;;1999.90;999.90;;;28.40;70.60;;;;;;5090146;28;20027;-68
2023/05/10 02:45:15;;;;;;;1999.90;999.90;;;28.40;71.10;;;;;;5068683;28;20481;-67
2023/05/10 02:47:43;;;;;;;1999.90;999.90;;;28.40;70.90;;;;;;5098953;28;20157;-68
2023/05/10 02:50:11;;;;;;;1999.90;999.90;;;28.40;70.60;;;;;;5088199;28;20107;-68
2023/05/10 02:52:43;;;;;;;1999.90;999.90;;;28.20;68.70;;;;;;5096066;28;20028;-67
2023/05/10 02:55:15;;;;;;;1999.90;999.90;;;27.90;69.80;;;;;;5098569;28;20468;-68
2023/05/10 02:57:58;;;;;;;1999.90;999.90;;;27.50;69.00;;;;;;5091071;28;20108;-68
2023/05/10 03:00:26;;;;;;;1999.90;999.90;;;27.30;71.00;;;;;;5095525;28;20135;-67
2023/05/10 03:02:54;;;;;;;1999.90;999.90;;;27.40;71.60;;;;;;5075733;28;20373;-69
2023/05/10 03:05:23;;;;;;;1999.90;999.90;;;27.50;71.40;;;;;;5093049;28;20538;-68
2023/05/10 03:07:51;;;;;;;1999.90;999.90;;;27.30;69.80;;;;;;5093864;28;20043;-70
2023/05/10 03:10:19;;;;;;;1999.90;999.90;;;27.00;70.50;;;;;;5094748;28;20051;-68
2023/05/10 03:13:01;;;;;;;1999.90;999.90;;;26.90;71.00;;;;;;5086126;28;20027;-68
2023/05/10 03:15:35;;;;;;;1999.90;999.90;;;26.70;71.30;;;;;;5069326;28;20035;-67
2023/05/10 03:18:13;;;;;;;1999.90;999.90;;;26.50;71.10;;;;;;5090923;28;20024;-68
2023/05/10 03:20:44;;;;;;;1999.90;999.90;;;26.50;72.10;;;;;;5088689;28;20040;-68
2023/05/10 03:23:35;;;;;;;1999.90;999.90;;;26.40;72.30;;;;;;5094033;28;20126;-68
2023/05/10 03:26:05;;;;;;;1999.90;999.90;;;26.40;71.50;;;;;;5092853;28;20036;-68
2023/05/10 03:28:34;;;;;;;1999.90;999.90;;;26.00;72.70;;;;;;5094080;28;20032;-68
2023/05/10 03:31:03;;;;;;;1999.90;999.90;;;25.80;73.60;;;;;;5087336;28;20047;-68
2023/05/10 03:33:30;;;;;;;1999.90;999.90;;;25.70;72.90;;;;;;5069861;28;20019;-69
2023/05/10 03:35:58;;;;;;;1999.90;999.90;;;25.40;73.10;;;;;;5087164;28;20391;-68
2023/05/10 03:38:25;;;;;;;1999.90;999.90;;;25.20;72.60;;;;;;5083850;28;20032;-68
2023/05/10 03:40:52;;;;;;;1999.90;999.90;;;24.70;72.90;;;;;;5084856;28;20031;-68
2023/05/10 03:43:19;;;;;;;1999.90;999.90;;;24.50;75.60;;;;;;5085105;28;20639;-68
2023/05/10 03:45:47;;;;;;;1999.90;999.90;;;24.20;75.20;;;;;;5088495;28;20093;-68
2023/05/10 03:48:14;;;;;;;1999.90;999.90;;;23.80;75.50;;;;;;5088983;28;20020;-68
2023/05/10 03:50:42;;;;;;;1999.90;999.90;;;23.60;76.20;;;;;;5070599;28;20096;-68
2023/05/10 03:53:10;;;;;;;1999.90;999.90;;;23.20;75.90;;;;;;5089345;28;20031;-69
2023/05/10 03:55:37;;;;;;;1999.90;999.90;;;23.00;77.30;;;;;;5092721;28;20036;-68
2023/05/10 03:58:04;;;;;;;1999.90;999.90;;;22.80;77.60;;;;;;5085728;28;20035;-70
2023/05/10 04:00:32;;;;;;;1999.90;999.90;;;22.80;77.20;;;;;;5086222;28;20031;-69
2023/05/10 04:03:01;;;;;;;1999.90;999.90;;;22.80;76.90;;;;;;5096390;28;20111;-69
2023/05/10 04:05:28;;;;;;;1999.90;999.90;;;22.70;77.10;;;;;;5095317;28;20024;-69
2023/05/10 04:07:55;;;;;;;1999.90;999.90;;;22.60;77.30;;;;;;5100109;28;20493;-69
2023/05/10 04:10:23;;;;;;;1999.90;999.90;;;22.50;77.80;;;;;;5093998;28;20050;-69
2023/05/10 04:12:50;;;;;;;1999.90;999.90;;;22.30;78.10;;;;;;5101930;28;20492;-69
2023/05/10 04:15:17;;;;;;;1999.90;999.90;;;22.10;78.40;;;;;;5093840;28;20053;-69
2023/05/10 04:17:45;;;;;;;1999.90;999.90;;;21.90;79.00;;;;;;5088952;28;20442;-69
2023/05/10 04:20:13;;;;;;;1999.90;999.90;;;21.80;79.30;;;;;;5087556;28;20046;-68
2023/05/10 04:22:40;;;;;;;1999.90;999.90;;;21.70;79.30;;;;;;5097743;28;20023;-69
2023/05/10 04:25:08;;;;;;;1999.90;999.90;;;21.60;79.40;;;;;;5095949;28;20457;-68
2023/05/10 04:27:36;;;;;;;1999.90;999.90;;;21.50;78.20;;;;;;5097179;28;20060;-68
2023/05/10 04:30:03;;;;;;;1999.90;999.90;;;21.30;78.50;;;;;;5095533;28;20057;-69
2023/05/10 04:32:34;;;;;;;1999.90;999.90;;;21.20;80.60;;;;;;5094372;28;20059;-68
2023/05/10 04:35:03;;;;;;;1999.90;999.90;;;21.10;81.10;;;;;;5090451;28;20031;-67
2023/05/10 04:37:30;;;;;;;1999.90;999.90;;;20.90;81.20;;;;;;5091911;28;20032;-67
2023/05/10 04:39:59;;;;;;;1999.90;999.90;;;20.80;80.90;;;;;;5088764;28;20064;-69
2023/05/10 04:42:27;;;;;;;1999.90;999.90;;;20.70;80.50;;;;;;5087639;28;20111;-69
2023/05/10 04:44:54;;;;;;;1999.90;999.90;;;20.70;81.00;;;;;;5087437;28;20648;-69
2023/05/10 04:47:21;;;;;;;1999.90;999.90;;;20.60;80.90;;;;;;5092764;28;20103;-69
2023/05/10 04:49:49;;;;;;;1999.90;999.90;;;20.50;81.40;;;;;;5090731;28;20494;-67
2023/05/10 04:52:17;;;;;;;1999.90;999.90;;;20.40;81.30;;;;;;5093418;28;20027;-68
2023/05/10 04:54:45;;;;;;;1999.90;999.90;;;20.30;82.00;;;;;;5085581;28;20036;-68
2023/05/10 04:57:12;;;;;;;1999.90;999.90;;;20.30;82.80;;;;;;5085912;28;20019;-67
2023/05/10 04:59:39;;;;;;;1999.90;999.90;;;20.20;83.00;;;;;;5082341;28;20063;-68
2023/05/10 05:02:07;;;;;;;1999.90;999.90;;;20.20;83.40;;;;;;5082746;28;20039;-67
2023/05/10 05:04:34;;;;;;;1999.90;999.90;;;20.20;83.50;;;;;;5078732;28;20029;-68
2023/05/10 05:07:01;;;;;;;1999.90;999.90;;;20.20;83.10;;;;;;5087619;28;20535;-67
2023/05/10 05:09:29;;;;;;;1999.90;999.90;;;20.10;83.20;;;;;;5080140;28;20394;-68
2023/05/10 05:11:57;;;;;;;1999.90;999.90;;;20.10;83.10;;;;;;5085082;28;20029;-68
2023/05/10 05:14:27;;;;;;;1999.90;999.90;;;20.00;82.60;;;;;;5064115;28;20118;-69
2023/05/10 05:16:55;;;;;;;1999.90;999.90;;;20.00;82.20;;;;;;5089418;28;20363;-69
2023/05/10 05:19:23;;;;;;;1999.90;999.90;;;20.00;82.80;;;;;;5079156;28;20040;-67
2023/05/10 05:21:53;;;;;;;1999.90;999.90;;;20.00;83.00;;;;;;5088115;28;20020;-69
2023/05/10 05:24:21;;;;;;;1999.90;999.90;;;20.00;83.30;;;;;;5083786;28;20441;-68
2023/05/10 05:26:48;;;;;;;1999.90;999.90;;;20.00;82.80;;;;;;5094966;28;20386;-70
2023/05/10 05:29:19;;;;;;;1999.90;999.90;;;20.00;83.30;;;;;;5081697;28;20534;-68
2023/05/10 05:31:46;;;;;;;1999.90;999.90;;;20.00;83.40;;;;;;5082873;28;20029;-67
2023/05/10 05:34:14;;;;;;;1999.90;999.90;;;20.00;84.00;;;;;;5089723;28;20020;-69
2023/05/10 05:36:41;;;;;;;1999.90;999.90;;;20.10;84.40;;;;;;5085522;28;20023;-70
2023/05/10 05:39:09;;;;;;;1999.90;999.90;;;20.10;84.20;;;;;;5074558;28;20040;-69
2023/05/10 05:41:43;;;;;;;1999.90;999.90;;;20.10;84.10;;;;;;5084864;28;20118;-69
2023/05/10 05:44:11;;;;;;;1999.90;999.90;;;20.10;84.20;;;;;;5074680;28;20031;-70
2023/05/10 05:46:38;;;;;;;1999.90;999.90;;;20.20;84.30;;;;;;5085113;28;20016;-69
2023/05/10 05:49:05;;;;;;;1999.90;999.90;;;20.20;84.00;;;;;;5087934;28;20060;-69
2023/05/10 05:51:34;;;;;;;1999.90;999.90;;;20.30;84.30;;;;;;5091265;28;20019;-68
2023/05/10 05:54:04;;;;;;;1999.90;999.90;;;20.40;84.00;;;;;;5080159;28;20035;-68
2023/05/10 05:56:34;;;;;;;1999.90;999.90;;;20.50;83.30;;;;;;5087691;28;20047;-67
2023/05/10 05:59:02;;;;;;;1999.90;999.90;;;20.60;83.80;;;;;;5083613;28;20048;-68
2023/05/10 06:01:29;;;;;;;1999.90;999.90;;;20.70;82.60;;;;;;5085487;28;20082;-70
2023/05/10 06:03:57;;;;;;;1999.90;999.90;;;20.70;83.10;;;;;;5075541;28;20112;-67
2023/05/10 06:06:24;;;;;;;1999.90;999.90;;;20.80;83.30;;;;;;5090552;28;20089;-69
2023/05/10 06:08:52;;;;;;;1999.90;999.90;;;20.90;83.50;;;;;;5079980;28;20047;-67
2023/05/10 06:11:20;;;;;;;1999.90;999.90;;;20.90;83.30;;;;;;5092944;28;20109;-69
2023/05/10 06:13:48;;;;;;;1999.90;999.90;;;20.90;83.60;;;;;;5095397;28;20389;-68
2023/05/10 06:16:15;;;;;;;1999.90;999.90;;;20.90;83.90;;;;;;5088493;28;20059;-68
2023/05/10 06:18:43;;;;;;;1999.90;999.90;;;20.80;84.10;;;;;;5091722;28;20059;-69
2023/05/10 06:21:10;;;;;;;1999.90;999.90;;;20.80;84.40;;;;;;5084476;28;20036;-66
2023/05/10 06:23:38;;;;;;;1999.90;999.90;;;20.70;84.20;;;;;;5088707;28;20036;-67
2023/05/10 06:26:05;;;;;;;1999.90;999.90;;;20.70;83.70;;;;;;5086153;28;20039;-69
2023/05/10 06:28:33;;;;;;;1999.90;999.90;;;20.50;84.90;;;;;;5093858;28;20032;-69
2023/05/10 06:31:01;;;;;;;1999.90;999.90;;;20.30;85.40;;;;;;5084948;28;20028;-68
2023/05/10 06:33:29;;;;;;;1999.90;999.90;;;20.20;85.90;;;;;;5102222;28;20114;-67
2023/05/10 06:35:57;;;;;;;1999.90;999.90;;;20.00;86.00;;;;;;5074882;28;20023;-68
2023/05/10 06:38:24;;;;;;;1999.90;999.90;;;19.80;87.60;;;;;;5085780;28;20524;-67
2023/05/10 06:40:55;;;;;;;1999.90;999.90;;;19.70;88.60;;;;;;5077409;28;20629;-68
2023/05/10 06:43:22;;;;;;;1999.90;999.90;;;19.50;89.50;;;;;;5090587;28;20474;-71
2023/05/10 06:45:50;;;;;;;1999.90;999.90;;;19.40;89.90;;;;;;5087064;28;20114;-68
2023/05/10 06:48:17;;;;;;;1999.90;999.90;;;19.20;90.20;;;;;;5087746;28;20028;-68
2023/05/10 06:50:45;;;;;;;1999.90;999.90;;;19.10;90.40;;;;;;5085635;28;20119;-68
2023/05/10 06:53:13;;;;;;;1999.90;999.90;;;18.90;90.60;;;;;;5089819;28;20452;-68
2023/05/10 06:55:40;;;;;;;1999.90;999.90;;;18.80;90.90;;;;;;5087234;28;20150;-68
2023/05/10 06:58:07;;;;;;;1999.90;999.90;;;18.70;91.30;;;;;;5090790;28;20103;-69
2023/05/10 07:00:38;;;;;;;1999.90;999.90;;;18.60;91.50;;;;;;5091158;28;20040;-69
2023/05/10 07:03:06;;;;;;;1999.90;999.90;;;18.50;91.70;;;;;;5089207;28;20117;-67
2023/05/10 07:05:34;;;;;;;1999.90;999.90;;;18.40;91.80;;;;;;5089366;28;20043;-68
2023/05/10 07:08:01;;;;;;;1999.90;999.90;;;18.20;92.00;;;;;;5104274;28;20030;-68
2023/05/10 07:10:29;;;;;;;1999.90;999.90;;;18.10;92.30;;;;;;5088734;28;20486;-67
2023/05/10 07:12:57;;;;;;;1999.90;999.90;;;18.00;92.50;;;;;;5089953;28;20111;-68
2023/05/10 07:15:24;;;;;;;1999.90;999.90;;;17.90;92.60;;;;;;5082807;28;20032;-68
2023/05/10 07:17:51;;;;;;;1999.90;999.90;;;17.80;92.80;;;;;;5089611;28;20067;-68
2023/05/10 07:20:19;;;;;;;1999.90;999.90;;;17.70;93.00;;;;;;5068814;28;20037;-67
2023/05/10 07:22:47;;;;;;;1999.90;999.90;;;17.60;93.20;;;;;;5058059;28;20021;-69
2023/05/10 07:25:14;;;;;;;1999.90;999.90;;;17.50;93.60;;;;;;5083435;28;20514;-68
2023/05/10 07:27:41;;;;;;;1999.90;999.90;;;17.40;93.80;;;;;;5087085;28;20054;-68
2023/05/10 07:30:09;;;;;;;1999.90;999.90;;;17.30;94.10;;;;;;5084257;28;20035;-66
2023/05/10 07:32:37;;;;;;;1999.90;999.90;;;17.10;94.30;;;;;;5090902;28;20047;-68
2023/05/10 07:35:04;;;;;;;1999.90;999.90;;;17.00;94.70;;;;;;5088983;28;20423;-67
2023/05/10 07:37:31;;;;;;;1999.90;999.90;;;17.00;94.90;;;;;;5091005;28;20023;-67
2023/05/10 07:40:02;;;;;;;1999.90;999.90;;;16.90;95.10;;;;;;5092384;28;20047;-68
2023/05/10 07:42:29;;;;;;;1999.90;999.90;;;16.80;95.30;;;;;;5089084;28;20092;-67
2023/05/10 07:44:56;;;;;;;1999.90;999.90;;;16.70;95.70;;;;;;5086663;28;20031;-68
2023/05/10 07:47:23;;;;;;;1999.90;999.90;;;16.60;96.10;;;;;;5099623;28;20382;-68
2023/05/10 07:49:51;;;;;;;1999.90;999.90;;;16.50;96.20;;;;;;5091716;28;20025;-68
2023/05/10 07:52:18;;;;;;;1999.90;999.90;;;16.50;96.40;;;;;;5096225;28;20065;-68
2023/05/10 07:54:46;;;;;;;1999.90;999.90;;;16.40;96.70;;;;;;5085263;28;20537;-69
2023/05/10 07:57:15;;;;;;;1999.90;999.90;;;16.40;97.00;;;;;;5097160;28;20064;-68
2023/05/10 07:59:42;;;;;;;1999.90;999.90;;;16.30;97.10;;;;;;5090214;28;20135;-69
2023/05/10 08:02:10;;;;;;;1999.90;999.90;;;16.20;97.30;;;;;;5089640;28;20071;-68
2023/05/10 08:04:38;;;;;;;1999.90;999.90;;;16.20;97.40;;;;;;5089738;28;20037;-68
2023/05/10 08:07:05;;;;;;;1999.90;999.90;;;16.10;97.70;;;;;;5088117;28;20042;-68
2023/05/10 08:09:33;;;;;;;1999.90;999.90;;;16.00;97.80;;;;;;5081792;28;20051;-68
2023/05/10 08:12:00;;;;;;;1999.90;999.90;;;15.90;98.00;;;;;;5089190;28;20485;-67
2023/05/10 08:14:29;;;;;;;1999.90;999.90;;;15.80;98.20;;;;;;5089112;28;20490;-68
2023/05/10 08:16:57;;;;;;;1999.90;999.90;;;15.70;98.50;;;;;;5096842;28;20024;-68
2023/05/10 08:19:24;;;;;;;1999.90;999.90;;;15.60;98.90;;;;;;5094642;28;20102;-68
2023/05/10 08:21:53;;;;;;;1999.90;999.90;;;15.50;99.30;;;;;;5095742;28;20088;-68
2023/05/10 08:24:22;;;;;;;1999.90;999.90;;;15.50;99.70;;;;;;5093007;28;20039;-68
2023/05/10 08:26:49;;;;;;;1999.90;999.90;;;15.40;99.90;;;;;;5096298;28;20036;-68
2023/05/10 08:29:16;;;;;;;1999.90;999.90;;;15.40;99.90;;;;;;5091090;28;20028;-68
2023/05/10 08:31:45;;;;;;;1999.90;999.90;;;15.40;99.90;;;;;;5102004;28;20066;-68
2023/05/10 08:34:12;;;;;;;1999.90;999.90;;;15.30;99.90;;;;;;5085957;28;20045;-68
2023/05/10 08:36:39;;;;;;;1999.90;999.90;;;15.30;99.90;;;;;;5098739;28;20145;-68
2023/05/10 08:39:07;;;;;;;1999.90;999.90;;;15.20;99.90;;;;;;5083472;28;20036;-68
2023/05/10 08:41:35;;;;;;;1999.90;999.90;;;15.20;99.90;;;;;;5093299;28;20040;-68
2023/05/10 08:44:05;;;;;;;1999.90;999.90;;;15.20;99.90;;;;;;5086630;28;20017;-68
2023/05/10 08:46:38;;;;;;;1999.90;999.90;;;15.10;99.90;;;;;;5102439;28;20028;-67
2023/05/10 08:49:08;;;;;;;1999.90;999.90;;;15.00;99.90;;;;;;5083072;28;20089;-67
2023/05/10 08:51:40;;;;;;;1999.90;999.90;;;14.90;99.90;;;;;;5092786;28;20028;-69
2023/05/10 08:54:07;;;;;;;1999.90;999.90;;;14.80;99.90;;;;;;5085239;28;20043;-67
2023/05/10 08:56:36;;;;;;;1999.90;999.90;;;14.70;99.90;;;;;;5092603;28;20031;-68
2023/05/10 08:59:03;;;;;;;1999.90;999.90;;;14.60;99.90;;;;;;5083819;28;20051;-69
2023/05/10 09:01:36;;;;;;;1999.90;999.90;;;14.50;99.90;;;;;;5086593;28;20048;-69
2023/05/10 09:04:04;;;;;;;1999.90;999.90;;;14.40;99.90;;;;;;5084162;28;20132;-68
2023/05/10 09:06:32;;;;;;;1999.90;999.90;;;14.40;99.90;;;;;;5091442;28;20030;-67
2023/05/10 09:09:00;;;;;;;1999.90;999.90;;;14.40;99.90;;;;;;5086999;28;20062;-67
2023/05/10 09:11:28;;;;;;;1999.90;999.90;;;14.30;99.90;;;;;;5088517;28;20036;-68
2023/05/10 09:13:56;;;;;;;1999.90;999.90;;;14.20;99.90;;;;;;5084523;28;20032;-68
2023/05/10 09:16:24;;;;;;;1999.90;999.90;;;14.20;99.90;;;;;;5089873;28;20402;-68
2023/05/10 09:18:51;;;;;;;1999.90;999.90;;;14.20;99.90;;;;;;5087269;28;20095;-68
2023/05/10 09:21:20;;;;;;;1999.90;999.90;;;14.10;99.90;;;;;;5086317;28;20036;-68
2023/05/10 09:23:49;;;;;;;1999.90;999.90;;;14.10;99.90;;;;;;5085174;28;20784;-67
2023/05/10 09:26:17;;;;;;;1999.90;999.90;;;14.10;99.90;;;;;;5093203;28;20077;-68
2023/05/10 09:28:59;;;;;;;1999.90;999.90;;;14.10;99.90;;;;;;5088552;28;20453;-68
2023/05/10 09:31:56;;;;;;;1999.90;999.90;;;14.00;99.90;;;;;;5091824;28;20097;-68
2023/05/10 09:34:34;;;;;;;1999.90;999.90;;;14.00;99.90;;;;;;5088915;28;20024;-67
2023/05/10 09:37:04;;;;;;;1999.90;999.90;;;13.90;99.90;;;;;;5089897;28;20036;-67
2023/05/10 09:39:32;;;;;;;1999.90;999.90;;;13.90;99.90;;;;;;5094332;28;20424;-68
2023/05/10 09:42:08;;;;;;;1999.90;999.90;;;13.90;99.90;;;;;;5091308;28;20032;-68
2023/05/10 09:44:36;;;;;;;;;;;13.80;99.90;;;;;;5087905;28;20027;-68
2023/05/10 09:47:04;;;;;;;1999.90;999.90;;;13.80;99.90;;;;;;5096624;28;19912;-68
2023/05/10 09:49:32;;;;;;;1999.90;999.90;;;13.80;99.90;;;;;;5092703;28;20035;-68
2023/05/10 09:52:05;;;;;;;1999.90;999.90;;;13.70;99.90;;;;;;5096143;28;20078;-68
2023/05/10 09:54:33;;;;;;;1999.90;999.90;;;13.70;99.90;;;;;;5094063;28;20094;-68
2023/05/10 09:57:01;;;;;;;1999.90;999.90;;;13.70;99.90;;;;;;5092119;28;20424;-69
2023/05/10 09:59:30;;;;;;;1999.90;999.90;;;13.70;99.90;;;;;;5088973;28;20046;-69
2023/05/10 10:01:58;;;;;;;1999.90;999.90;;;13.60;99.90;;;;;;5096088;28;20577;-67
2023/05/10 10:04:26;;;;;;;1999.90;999.90;;;13.60;99.90;;;;;;5093851;28;20027;-69
2023/05/10 10:07:01;;;;;;;1999.90;999.90;;;13.60;99.90;;;;;;5095558;28;20389;-68
2023/05/10 10:09:29;;;;;;;1999.90;999.90;;;13.60;99.90;;;;;;5093022;28;20028;-69
2023/05/10 10:11:59;;;;;;;1999.90;999.90;;;13.60;99.90;;;;;;5080207;28;20066;-67
2023/05/10 10:14:27;;;;;;;1999.90;999.90;;;13.50;99.90;;;;;;5089557;28;20066;-68
2023/05/10 10:16:55;;;;;;;1999.90;999.90;;;13.60;99.90;;;;;;5075478;28;20028;-68
2023/05/10 10:19:22;;;;;;;1999.90;999.90;;;13.50;99.90;;;;;;5086483;28;20044;-68
2023/05/10 10:21:52;;;;;;;1999.90;999.90;;;13.40;99.90;;;;;;5075875;28;20032;-67
2023/05/10 10:24:20;;;;;;;1999.90;999.90;;;13.40;99.90;;;;;;5088683;28;20221;-67
2023/05/10 10:26:49;;;;;;;1999.90;999.90;;;13.30;99.90;;;;;;5095656;28;20043;-68
2023/05/10 10:29:48;;;;;;;1999.90;999.90;;;13.30;99.90;;;;;;5088753;28;20050;-68
2023/05/10 10:32:34;;;;;;;1999.90;999.90;;;13.20;99.90;;;;;;5080401;28;20391;-68
2023/05/10 10:35:01;;;;;;;1999.90;999.90;;;13.10;99.90;;;;;;5088907;28;20114;-67
2023/05/10 10:37:46;;;;;;;1999.90;999.90;;;13.10;99.90;;;;;;5088741;28;20111;-68
2023/05/10 10:40:35;;;;;;;1999.90;999.90;;;13.00;99.90;;;;;;5089095;28;20072;-68
2023/05/10 10:43:29;;;;;;;1999.90;999.90;;;13.00;99.90;;;;;;5088864;28;20431;-66
2023/05/10 10:46:16;;;;;;;1999.90;999.90;;;13.00;99.90;;;;;;5086624;28;20085;-69
2023/05/10 10:49:08;;;;;;;1999.90;999.90;;;13.00;99.90;;;;;;5089556;28;20036;-68
2023/05/10 10:51:40;;;;;;;1999.90;999.90;;;13.00;99.90;;;;;;5088711;28;20381;-69
2023/05/10 10:54:11;;;;;;;1999.90;999.90;;;12.90;99.90;;;;;;5092359;28;20059;-68
2023/05/10 10:56:39;;;;;;;1999.90;999.90;;;12.90;99.90;;;;;;5091325;28;20024;-66
2023/05/10 10:59:08;;;;;;;1999.90;999.90;;;12.90;99.90;;;;;;5086172;28;20073;-68
2023/05/10 11:01:35;;;;;;;1999.90;999.90;;;12.80;99.90;;;;;;5094297;28;20035;-68
2023/05/10 11:04:06;;;;;;;1999.90;999.90;;;12.80;99.90;;;;;;5089786;28;20036;-68
2023/05/10 11:06:35;;;;;;;1999.90;999.90;;;12.80;99.90;;;;;;5094609;28;20047;-67
2023/05/10 11:09:11;;;;;;;1999.90;999.90;;;12.80;99.90;;;;;;5083731;28;20028;-69
2023/05/10 11:11:55;;;;;;;1999.90;999.90;;;12.70;99.90;;;;;;5094175;28;20066;-69
2023/05/10 11:14:23;;;;;;;1999.90;999.90;;;12.70;99.90;;;;;;5092033;28;20032;-68
2023/05/10 11:16:52;;;;;;;1999.90;999.90;;;12.70;99.90;;;;;;5091517;28;20035;-69
2023/05/10 11:19:20;;;;;;;1999.90;999.90;;;12.60;99.90;;;;;;5088417;28;20046;-69
2023/05/10 11:21:50;;;;;;;1999.90;999.90;;;12.70;99.90;;;;;;5077272;28;20030;-69
2023/05/10 11:24:22;;;;;;;1999.90;999.90;;;12.60;99.90;;;;;;5093871;28;20047;-69
2023/05/10 11:26:53;;;;;;;1999.90;999.90;;;12.60;99.90;;;;;;5092014;28;20481;-70
2023/05/10 11:29:21;;;;;;;1999.90;999.90;;;12.50;99.90;;;;;;5085396;28;20040;-69
2023/05/10 11:31:49;;;;;;;1999.90;999.90;;;12.50;99.90;;;;;;5093519;28;20530;-69
2023/05/10 11:34:28;;;;;;;1999.90;999.90;;;12.50;99.90;;;;;;5083659;28;20039;-68
2023/05/10 11:36:56;;;;;;;1999.90;999.90;;;12.40;99.90;;;;;;5096408;28;20044;-69
2023/05/10 11:39:33;;;;;;;1999.90;999.90;;;12.40;99.90;;;;;;5084657;28;20031;-69
2023/05/10 11:42:00;;;;;;;1999.90;999.90;;;12.40;99.90;;;;;;5091163;28;20334;-68
2023/05/10 11:44:34;;;;;;;1999.90;999.90;;;12.40;99.90;;;;;;5090352;28;20031;-69
2023/05/10 11:47:02;;;;;;;1999.90;999.90;;;12.30;99.90;;;;;;5093020;28;20358;-68
2023/05/10 11:49:30;;;;;;;1999.90;999.90;;;12.30;99.90;;;;;;5095527;28;20031;-69
2023/05/10 11:52:08;;;;;;;1999.90;999.90;;;12.20;99.90;;;;;;5097357;28;20028;-68
2023/05/10 11:54:35;;;;;;;1999.90;999.90;;;12.20;99.90;;;;;;5096749;28;20656;-68
2023/05/10 11:57:03;;;;;;;1999.90;999.90;;;12.20;99.90;;;;;;5099133;28;20375;-68
2023/05/10 11:59:30;;;;;;;1999.90;999.90;;;12.10;99.90;;;;;;5096530;28;20393;-68
2023/05/10 12:01:58;;;;;;;1999.90;999.90;;;12.10;99.90;;;;;;5090505;28;20039;-68
2023/05/10 12:04:29;;;;;;;1999.90;999.90;;;12.00;99.90;;;;;;5089591;28;20036;-66
2023/05/10 12:06:56;;;;;;;1999.90;999.90;;;12.00;99.90;;;;;;5092341;28;20036;-69
2023/05/10 12:09:23;;;;;;;1999.90;999.90;;;11.90;99.90;;;;;;5086988;28;20488;-69
2023/05/10 12:12:00;;;;;;;1999.90;999.90;;;11.90;99.90;;;;;;5093117;28;20082;-68
2023/05/10 12:14:28;;;;;;;1999.90;999.90;;;11.80;99.90;;;;;;5088106;28;20386;-67